sensor_id;sensor_type;location;lat;lon;timestamp;pressure;altitude;pressure_sealevel;temperature;humidity
76594;BME280;65482;50.240;14.302;2022-12-20T00:00:49;100582.84;;;-1.84;77.08
76594;BME280;65482;50.240;14.302;2022-12-20T00:03:16;100585.56;;;-1.87;76.99
76594;BME280;65482;50.240;14.302;2022-12-20T00:05:42;100582.41;;;-1.95;77.38
76594;BME280;65482;50.240;14.302;2022-12-20T00:08:09;100573.34;;;-2.07;76.72
76594;BME280;65482;50.240;14.302;2022-12-20T00:10:41;100560.47;;;-2.08;77.11
76594;BME280;65482;50.240;14.302;2022-12-20T00:13:08;100569.28;;;-2.14;76.71
76594;BME280;65482;50.240;14.302;2022-12-20T00:15:34;100576.28;;;-2.17;76.51
76594;BME280;65482;50.240;14.302;2022-12-20T00:18:00;100565.31;;;-2.24;77.17
76594;BME280;65482;50.240;14.302;2022-12-20T00:20:26;100562.78;;;-2.26;76.83
76594;BME280;65482;50.240;14.302;2022-12-20T00:22:52;100572.28;;;-2.26;77.10
76594;BME280;65482;50.240;14.302;2022-12-20T00:25:18;100574.06;;;-2.28;76.91
76594;BME280;65482;50.240;14.302;2022-12-20T00:27:46;100576.72;;;-2.30;76.75
76594;BME280;65482;50.240;14.302;2022-12-20T00:30:12;100571.59;;;-2.31;76.86
76594;BME280;65482;50.240;14.302;2022-12-20T00:32:38;100574.16;;;-2.31;76.67
76594;BME280;65482;50.240;14.302;2022-12-20T00:35:04;100570.75;;;-2.32;76.79
76594;BME280;65482;50.240;14.302;2022-12-20T00:37:30;100568.22;;;-2.33;76.85
76594;BME280;65482;50.240;14.302;2022-12-20T00:39:55;100566.53;;;-2.34;77.05
76594;BME280;65482;50.240;14.302;2022-12-20T00:42:21;100563.97;;;-2.34;76.89
76594;BME280;65482;50.240;14.302;2022-12-20T00:44:47;100558.00;;;-2.36;76.53
76594;BME280;65482;50.240;14.302;2022-12-20T00:47:12;100558.00;;;-2.36;76.62
76594;BME280;65482;50.240;14.302;2022-12-20T00:49:40;100564.97;;;-2.38;76.43
76594;BME280;65482;50.240;14.302;2022-12-20T00:52:06;100569.22;;;-2.37;77.30
76594;BME280;65482;50.240;14.302;2022-12-20T00:54:31;100561.63;;;-2.42;76.82
76594;BME280;65482;50.240;14.302;2022-12-20T00:56:57;100560.84;;;-2.44;76.98
76594;BME280;65482;50.240;14.302;2022-12-20T00:59:22;100558.50;;;-2.52;76.71
76594;BME280;65482;50.240;14.302;2022-12-20T01:01:48;100556.75;;;-2.51;77.15
76594;BME280;65482;50.240;14.302;2022-12-20T01:04:14;100556.81;;;-2.53;77.02
76594;BME280;65482;50.240;14.302;2022-12-20T01:06:40;100559.38;;;-2.53;77.05
76594;BME280;65482;50.240;14.302;2022-12-20T01:09:05;100556.94;;;-2.56;76.75
76594;BME280;65482;50.240;14.302;2022-12-20T01:11:33;100555.31;;;-2.58;77.24
76594;BME280;65482;50.240;14.302;2022-12-20T01:14:04;100544.88;;;-2.57;77.10
76594;BME280;65482;50.240;14.302;2022-12-20T01:16:37;100540.69;;;-2.60;77.07
76594;BME280;65482;50.240;14.302;2022-12-20T01:19:03;100541.84;;;-2.68;76.92
76594;BME280;65482;50.240;14.302;2022-12-20T01:21:29;100550.47;;;-2.69;76.84
76594;BME280;65482;50.240;14.302;2022-12-20T01:23:55;100546.09;;;-2.67;76.88
76594;BME280;65482;50.240;14.302;2022-12-20T01:26:25;100549.94;;;-2.79;76.76
76594;BME280;65482;50.240;14.302;2022-12-20T01:28:54;100538.84;;;-2.83;77.27
76594;BME280;65482;50.240;14.302;2022-12-20T01:31:20;100519.94;;;-2.83;76.63
76594;BME280;65482;50.240;14.302;2022-12-20T01:33:47;100511.22;;;-2.81;77.22
76594;BME280;65482;50.240;14.302;2022-12-20T01:36:29;100515.53;;;-2.80;76.59
76594;BME280;65482;50.240;14.302;2022-12-20T01:38:56;100523.28;;;-2.80;76.63
76594;BME280;65482;50.240;14.302;2022-12-20T01:41:23;100538.81;;;-2.81;76.72
76594;BME280;65482;50.240;14.302;2022-12-20T01:43:55;100541.38;;;-2.81;76.99
76594;BME280;65482;50.240;14.302;2022-12-20T01:46:26;100539.75;;;-2.84;76.51
76594;BME280;65482;50.240;14.302;2022-12-20T01:49:08;100547.47;;;-2.82;77.02
76594;BME280;65482;50.240;14.302;2022-12-20T01:52:03;100557.72;;;-2.81;76.54
76594;BME280;65482;50.240;14.302;2022-12-20T01:57:01;100534.63;;;-2.85;76.41
76594;BME280;65482;50.240;14.302;2022-12-20T01:59:27;100538.13;;;-2.86;77.00
76594;BME280;65482;50.240;14.302;2022-12-20T02:01:57;100534.00;;;-2.92;77.07
76594;BME280;65482;50.240;14.302;2022-12-20T02:04:23;100533.16;;;-2.92;76.35
76594;BME280;65482;50.240;14.302;2022-12-20T02:06:49;100539.16;;;-2.92;76.76
76594;BME280;65482;50.240;14.302;2022-12-20T02:09:14;100529.84;;;-2.96;76.51
76594;BME280;65482;50.240;14.302;2022-12-20T02:12:06;100518.72;;;-2.98;76.14
76594;BME280;65482;50.240;14.302;2022-12-20T02:31:18;100519.78;;;-3.05;76.71
76594;BME280;65482;50.240;14.302;2022-12-20T02:33:47;100500.69;;;-3.00;76.51
76594;BME280;65482;50.240;14.302;2022-12-20T02:36:15;100506.00;;;-3.04;76.63
76594;BME280;65482;50.240;14.302;2022-12-20T02:38:41;100513.84;;;-3.07;76.74
76594;BME280;65482;50.240;14.302;2022-12-20T02:41:18;100516.25;;;-3.03;76.17
76594;BME280;65482;50.240;14.302;2022-12-20T02:43:49;100513.69;;;-3.03;76.23
76594;BME280;65482;50.240;14.302;2022-12-20T02:46:36;100518.00;;;-3.03;76.08
76594;BME280;65482;50.240;14.302;2022-12-20T02:49:08;100509.66;;;-3.11;76.52
76594;BME280;65482;50.240;14.302;2022-12-20T02:51:36;100508.03;;;-3.14;75.98
76594;BME280;65482;50.240;14.302;2022-12-20T02:54:03;100515.78;;;-3.14;76.09
76594;BME280;65482;50.240;14.302;2022-12-20T02:56:37;100503.72;;;-3.13;75.83
76594;BME280;65482;50.240;14.302;2022-12-20T02:59:10;100499.75;;;-3.24;75.25
76594;BME280;65482;50.240;14.302;2022-12-20T03:01:43;100491.22;;;-3.26;75.22
76594;BME280;65482;50.240;14.302;2022-12-20T03:04:11;100486.88;;;-3.25;75.38
76594;BME280;65482;50.240;14.302;2022-12-20T03:06:38;100469.56;;;-3.22;74.92
76594;BME280;65482;50.240;14.302;2022-12-20T03:09:04;100484.16;;;-3.21;75.13
76594;BME280;65482;50.240;14.302;2022-12-20T03:11:30;100482.56;;;-3.25;74.51
76594;BME280;65482;50.240;14.302;2022-12-20T03:13:55;100472.00;;;-3.17;74.62
76594;BME280;65482;50.240;14.302;2022-12-20T03:16:21;100486.47;;;-3.13;74.00
76594;BME280;65482;50.240;14.302;2022-12-20T03:18:47;100483.78;;;-3.08;73.94
76594;BME280;65482;50.240;14.302;2022-12-20T03:21:12;100472.50;;;-3.06;73.51
76594;BME280;65482;50.240;14.302;2022-12-20T03:23:38;100478.50;;;-3.05;73.38
76594;BME280;65482;50.240;14.302;2022-12-20T03:26:03;100486.53;;;-3.14;73.47
76594;BME280;65482;50.240;14.302;2022-12-20T03:28:29;100489.84;;;-3.11;73.82
76594;BME280;65482;50.240;14.302;2022-12-20T03:30:55;100493.19;;;-3.07;74.01
76594;BME280;65482;50.240;14.302;2022-12-20T03:33:20;100497.47;;;-3.06;73.95
76594;BME280;65482;50.240;14.302;2022-12-20T03:35:46;100483.38;;;-2.96;73.34
76594;BME280;65482;50.240;14.302;2022-12-20T03:38:12;100491.06;;;-2.94;73.13
76594;BME280;65482;50.240;14.302;2022-12-20T03:40:38;100489.28;;;-2.92;73.25
76594;BME280;65482;50.240;14.302;2022-12-20T03:43:04;100490.00;;;-2.89;73.25
76594;BME280;65482;50.240;14.302;2022-12-20T03:45:29;100490.84;;;-2.88;72.97
76594;BME280;65482;50.240;14.302;2022-12-20T03:47:55;100496.75;;;-2.85;73.24
76594;BME280;65482;50.240;14.302;2022-12-20T03:50:20;100496.50;;;-2.77;72.24
76594;BME280;65482;50.240;14.302;2022-12-20T03:52:46;100493.06;;;-2.77;72.22
76594;BME280;65482;50.240;14.302;2022-12-20T03:55:12;100482.78;;;-2.79;72.53
76594;BME280;65482;50.240;14.302;2022-12-20T03:57:38;100471.41;;;-2.73;72.41
76594;BME280;65482;50.240;14.302;2022-12-20T04:00:04;100492.91;;;-2.73;72.83
76594;BME280;65482;50.240;14.302;2022-12-20T04:02:31;100480.16;;;-2.77;72.90
76594;BME280;65482;50.240;14.302;2022-12-20T04:04:56;100478.31;;;-2.74;72.83
76594;BME280;65482;50.240;14.302;2022-12-20T04:07:22;100478.09;;;-2.68;73.00
76594;BME280;65482;50.240;14.302;2022-12-20T04:09:48;100481.31;;;-2.61;72.52
76594;BME280;65482;50.240;14.302;2022-12-20T04:12:13;100485.47;;;-2.57;73.31
76594;BME280;65482;50.240;14.302;2022-12-20T04:14:39;100500.94;;;-2.55;72.85
76594;BME280;65482;50.240;14.302;2022-12-20T04:17:05;100509.38;;;-2.50;73.05
76594;BME280;65482;50.240;14.302;2022-12-20T04:19:30;100516.06;;;-2.45;73.14
76594;BME280;65482;50.240;14.302;2022-12-20T04:21:56;100515.88;;;-2.38;73.16
76594;BME280;65482;50.240;14.302;2022-12-20T04:24:23;100517.53;;;-2.37;72.95
76594;BME280;65482;50.240;14.302;2022-12-20T04:26:49;100497.88;;;-2.42;72.67
76594;BME280;65482;50.240;14.302;2022-12-20T04:29:14;100490.84;;;-2.38;73.15
76594;BME280;65482;50.240;14.302;2022-12-20T04:31:40;100478.59;;;-2.33;72.43
76594;BME280;65482;50.240;14.302;2022-12-20T04:34:06;100474.06;;;-2.26;72.66
76594;BME280;65482;50.240;14.302;2022-12-20T04:36:32;100477.50;;;-2.26;72.25
76594;BME280;65482;50.240;14.302;2022-12-20T04:38:58;100473.00;;;-2.21;72.31
76594;BME280;65482;50.240;14.302;2022-12-20T04:41:24;100474.47;;;-2.13;71.95
76594;BME280;65482;50.240;14.302;2022-12-20T04:43:53;100473.53;;;-2.11;72.15
76594;BME280;65482;50.240;14.302;2022-12-20T04:46:20;100475.09;;;-2.07;72.47
76594;BME280;65482;50.240;14.302;2022-12-20T04:48:45;100479.03;;;-1.96;71.98
76594;BME280;65482;50.240;14.302;2022-12-20T04:51:11;100497.78;;;-2.15;72.03
76594;BME280;65482;50.240;14.302;2022-12-20T04:53:37;100489.97;;;-2.13;72.40
76594;BME280;65482;50.240;14.302;2022-12-20T04:56:22;100507.13;;;-2.11;72.57
76594;BME280;65482;50.240;14.302;2022-12-20T04:58:51;100507.19;;;-2.12;72.26
76594;BME280;65482;50.240;14.302;2022-12-20T05:01:17;100502.66;;;-2.07;72.38
76594;BME280;65482;50.240;14.302;2022-12-20T05:03:45;100497.16;;;-1.98;73.25
76594;BME280;65482;50.240;14.302;2022-12-20T05:06:12;100507.59;;;-2.01;73.24
76594;BME280;65482;50.240;14.302;2022-12-20T05:08:37;100513.66;;;-2.01;72.80
76594;BME280;65482;50.240;14.302;2022-12-20T05:11:04;100506.00;;;-2.04;73.03
76594;BME280;65482;50.240;14.302;2022-12-20T05:13:29;100497.50;;;-2.07;72.92
76594;BME280;65482;50.240;14.302;2022-12-20T05:15:56;100498.28;;;-2.05;73.13
76594;BME280;65482;50.240;14.302;2022-12-20T05:18:22;100489.91;;;-2.12;73.42
76594;BME280;65482;50.240;14.302;2022-12-20T05:20:49;100480.50;;;-2.13;73.46
76594;BME280;65482;50.240;14.302;2022-12-20T05:23:35;100466.56;;;-2.09;73.29
76594;BME280;65482;50.240;14.302;2022-12-20T05:26:19;100458.72;;;-2.07;74.42
76594;BME280;65482;50.240;14.302;2022-12-20T05:28:44;100464.66;;;-2.05;74.70
76594;BME280;65482;50.240;14.302;2022-12-20T05:31:10;100470.47;;;-1.98;74.68
76594;BME280;65482;50.240;14.302;2022-12-20T05:33:36;100470.13;;;-1.89;74.52
76594;BME280;65482;50.240;14.302;2022-12-20T05:36:02;100470.59;;;-1.80;74.32
76594;BME280;65482;50.240;14.302;2022-12-20T05:38:27;100476.34;;;-1.71;74.66
76594;BME280;65482;50.240;14.302;2022-12-20T05:40:53;100456.50;;;-1.71;74.09
76594;BME280;65482;50.240;14.302;2022-12-20T05:43:19;100439.34;;;-1.73;74.47
76594;BME280;65482;50.240;14.302;2022-12-20T05:45:49;100442.34;;;-1.62;73.64
76594;BME280;65482;50.240;14.302;2022-12-20T05:48:16;100441.69;;;-1.67;73.80
76594;BME280;65482;50.240;14.302;2022-12-20T05:50:43;100426.63;;;-1.57;73.86
76594;BME280;65482;50.240;14.302;2022-12-20T05:53:13;100423.09;;;-1.55;73.11
76594;BME280;65482;50.240;14.302;2022-12-20T05:55:50;100414.63;;;-1.58;73.29
76594;BME280;65482;50.240;14.302;2022-12-20T05:58:17;100419.38;;;-1.70;73.44
76594;BME280;65482;50.240;14.302;2022-12-20T06:00:44;100423.56;;;-1.67;73.54
76594;BME280;65482;50.240;14.302;2022-12-20T06:03:10;100438.16;;;-1.65;73.64
76594;BME280;65482;50.240;14.302;2022-12-20T06:05:37;100442.53;;;-1.67;73.10
76594;BME280;65482;50.240;14.302;2022-12-20T06:08:04;100475.09;;;-1.61;73.63
76594;BME280;65482;50.240;14.302;2022-12-20T06:10:31;100461.91;;;-1.55;73.36
76594;BME280;65482;50.240;14.302;2022-12-20T06:12:59;100467.63;;;-1.47;73.27
76594;BME280;65482;50.240;14.302;2022-12-20T06:15:25;100460.47;;;-1.40;73.40
76594;BME280;65482;50.240;14.302;2022-12-20T06:17:51;100456.69;;;-1.31;73.55
76594;BME280;65482;50.240;14.302;2022-12-20T06:20:22;100452.88;;;-1.23;73.02
76594;BME280;65482;50.240;14.302;2022-12-20T06:22:50;100452.03;;;-1.23;72.76
76594;BME280;65482;50.240;14.302;2022-12-20T06:25:17;100459.03;;;-1.25;72.60
76594;BME280;65482;50.240;14.302;2022-12-20T06:27:42;100472.00;;;-1.27;72.87
76594;BME280;65482;50.240;14.302;2022-12-20T06:30:09;100476.09;;;-1.21;72.56
76594;BME280;65482;50.240;14.302;2022-12-20T06:32:35;100457.13;;;-1.22;72.11
76594;BME280;65482;50.240;14.302;2022-12-20T06:35:01;100447.38;;;-1.15;72.18
76594;BME280;65482;50.240;14.302;2022-12-20T06:37:27;100443.16;;;-1.17;72.37
76594;BME280;65482;50.240;14.302;2022-12-20T06:39:52;100435.94;;;-1.09;72.64
76594;BME280;65482;50.240;14.302;2022-12-20T06:42:18;100420.03;;;-1.22;72.46
76594;BME280;65482;50.240;14.302;2022-12-20T06:44:45;100409.94;;;-1.28;72.52
76594;BME280;65482;50.240;14.302;2022-12-20T06:47:11;100420.19;;;-1.25;73.07
76594;BME280;65482;50.240;14.302;2022-12-20T06:49:37;100445.16;;;-1.24;72.96
76594;BME280;65482;50.240;14.302;2022-12-20T06:52:06;100470.22;;;-1.25;73.42
76594;BME280;65482;50.240;14.302;2022-12-20T06:54:58;100480.97;;;-1.13;72.88
76594;BME280;65482;50.240;14.302;2022-12-20T06:58:15;100476.13;;;-1.01;73.42
76594;BME280;65482;50.240;14.302;2022-12-20T07:00:53;100470.03;;;-1.00;73.34
76594;BME280;65482;50.240;14.302;2022-12-20T07:03:22;100467.91;;;-0.90;72.50
76594;BME280;65482;50.240;14.302;2022-12-20T07:05:51;100456.75;;;-0.92;71.87
76594;BME280;65482;50.240;14.302;2022-12-20T07:12:08;100435.00;;;-1.08;72.07
76594;BME280;65482;50.240;14.302;2022-12-20T07:14:34;100405.63;;;-1.07;72.17
76594;BME280;65482;50.240;14.302;2022-12-20T07:17:00;100367.84;;;-1.11;72.51
76594;BME280;65482;50.240;14.302;2022-12-20T07:19:25;100324.00;;;-1.16;72.05
76594;BME280;65482;50.240;14.302;2022-12-20T07:21:51;100284.81;;;-1.27;72.56
76594;BME280;65482;50.240;14.302;2022-12-20T07:24:18;100288.56;;;-1.34;72.42
76594;BME280;65482;50.240;14.302;2022-12-20T07:26:44;100324.38;;;-1.46;72.22
76594;BME280;65482;50.240;14.302;2022-12-20T07:29:11;100378.81;;;-1.47;73.19
76594;BME280;65482;50.240;14.302;2022-12-20T07:31:38;100457.88;;;-1.40;72.72
76594;BME280;65482;50.240;14.302;2022-12-20T07:34:03;100483.09;;;-1.23;72.66
76594;BME280;65482;50.240;14.302;2022-12-20T07:36:29;100483.63;;;-1.15;73.06
76594;BME280;65482;50.240;14.302;2022-12-20T07:38:55;100475.34;;;-1.03;72.65
76594;BME280;65482;50.240;14.302;2022-12-20T07:41:20;100467.91;;;-0.90;72.41
76594;BME280;65482;50.240;14.302;2022-12-20T07:43:46;100465.50;;;-0.74;72.45
76594;BME280;65482;50.240;14.302;2022-12-20T07:46:13;100462.22;;;-0.57;72.12
76594;BME280;65482;50.240;14.302;2022-12-20T07:48:39;100442.63;;;-0.44;71.77
76594;BME280;65482;50.240;14.302;2022-12-20T07:51:16;100424.22;;;-0.37;70.24
76594;BME280;65482;50.240;14.302;2022-12-20T07:53:47;100403.97;;;-0.29;70.16
76594;BME280;65482;50.240;14.302;2022-12-20T07:56:15;100406.50;;;-0.28;69.49
76594;BME280;65482;50.240;14.302;2022-12-20T07:58:43;100426.19;;;-0.24;69.71
76594;BME280;65482;50.240;14.302;2022-12-20T08:01:10;100417.19;;;-0.16;69.04
76594;BME280;65482;50.240;14.302;2022-12-20T08:03:43;100405.09;;;-0.16;69.11
76594;BME280;65482;50.240;14.302;2022-12-20T08:06:11;100404.75;;;-0.27;69.09
76594;BME280;65482;50.240;14.302;2022-12-20T08:08:39;100411.09;;;-0.34;69.75
76594;BME280;65482;50.240;14.302;2022-12-20T08:11:07;100396.59;;;-0.38;69.37
76594;BME280;65482;50.240;14.302;2022-12-20T08:13:35;100417.75;;;-0.29;69.45
76594;BME280;65482;50.240;14.302;2022-12-20T08:16:01;100421.13;;;-0.27;69.58
76594;BME280;65482;50.240;14.302;2022-12-20T08:18:30;100428.34;;;-0.33;69.49
76594;BME280;65482;50.240;14.302;2022-12-20T08:20:56;100417.34;;;-0.19;68.77
76594;BME280;65482;50.240;14.302;2022-12-20T08:23:22;100423.66;;;-0.06;68.45
76594;BME280;65482;50.240;14.302;2022-12-20T08:25:47;100407.97;;;-0.03;68.43
76594;BME280;65482;50.240;14.302;2022-12-20T08:28:13;100400.47;;;-0.09;68.67
76594;BME280;65482;50.240;14.302;2022-12-20T08:30:38;100414.19;;;-0.07;68.60
76594;BME280;65482;50.240;14.302;2022-12-20T08:33:04;100395.22;;;-0.08;68.54
76594;BME280;65482;50.240;14.302;2022-12-20T08:35:30;100416.25;;;-0.14;69.05
76594;BME280;65482;50.240;14.302;2022-12-20T08:37:56;100419.19;;;-0.22;68.77
76594;BME280;65482;50.240;14.302;2022-12-20T08:40:21;100421.78;;;-0.22;69.28
76594;BME280;65482;50.240;14.302;2022-12-20T08:42:47;100414.88;;;-0.23;69.69
76594;BME280;65482;50.240;14.302;2022-12-20T08:45:13;100418.88;;;-0.34;69.80
76594;BME280;65482;50.240;14.302;2022-12-20T08:47:39;100410.00;;;-0.29;69.78
76594;BME280;65482;50.240;14.302;2022-12-20T08:50:05;100413.34;;;-0.27;69.61
76594;BME280;65482;50.240;14.302;2022-12-20T08:52:31;100408.50;;;-0.34;69.71
76594;BME280;65482;50.240;14.302;2022-12-20T08:54:56;100399.06;;;-0.35;69.71
76594;BME280;65482;50.240;14.302;2022-12-20T08:57:23;100401.88;;;-0.21;69.42
76594;BME280;65482;50.240;14.302;2022-12-20T08:59:48;100384.69;;;-0.24;69.66
76594;BME280;65482;50.240;14.302;2022-12-20T09:02:18;100408.59;;;-0.17;69.38
76594;BME280;65482;50.240;14.302;2022-12-20T09:04:53;100394.22;;;-0.05;68.65
76594;BME280;65482;50.240;14.302;2022-12-20T09:07:30;100374.19;;;-0.02;68.78
76594;BME280;65482;50.240;14.302;2022-12-20T09:10:00;100383.56;;;0.01;68.49
76594;BME280;65482;50.240;14.302;2022-12-20T09:12:26;100388.38;;;0.09;68.44
76594;BME280;65482;50.240;14.302;2022-12-20T09:49:27;100396.41;;;0.93;66.26
76594;BME280;65482;50.240;14.302;2022-12-20T09:52:25;100390.69;;;0.86;66.05
76594;BME280;65482;50.240;14.302;2022-12-20T10:00:45;100383.97;;;0.65;66.94
76594;BME280;65482;50.240;14.302;2022-12-20T10:03:56;100380.00;;;0.75;67.26
76594;BME280;65482;50.240;14.302;2022-12-20T10:12:19;100366.69;;;0.98;66.48
76594;BME280;65482;50.240;14.302;2022-12-20T10:17:51;100356.06;;;1.03;66.44
76594;BME280;65482;50.240;14.302;2022-12-20T10:23:08;100361.53;;;1.14;66.08
76594;BME280;65482;50.240;14.302;2022-12-20T10:25:39;100368.56;;;1.30;65.36
76594;BME280;65482;50.240;14.302;2022-12-20T10:28:12;100342.00;;;1.56;65.68
76594;BME280;65482;50.240;14.302;2022-12-20T10:30:40;100320.84;;;1.78;64.71
76594;BME280;65482;50.240;14.302;2022-12-20T10:33:22;100315.84;;;1.75;64.61
76594;BME280;65482;50.240;14.302;2022-12-20T10:35:54;100336.66;;;1.91;64.47
76594;BME280;65482;50.240;14.302;2022-12-20T10:38:20;100343.50;;;1.92;64.68
76594;BME280;65482;50.240;14.302;2022-12-20T10:43:39;100328.66;;;1.94;64.38
76594;BME280;65482;50.240;14.302;2022-12-20T10:46:07;100325.66;;;1.86;64.27
76594;BME280;65482;50.240;14.302;2022-12-20T10:48:38;100326.31;;;1.74;64.39
76594;BME280;65482;50.240;14.302;2022-12-20T10:53:33;100318.66;;;1.55;65.57
76594;BME280;65482;50.240;14.302;2022-12-20T10:58:58;100341.72;;;1.45;65.63
76594;BME280;65482;50.240;14.302;2022-12-20T11:01:28;100336.31;;;1.50;65.45
76594;BME280;65482;50.240;14.302;2022-12-20T11:03:56;100334.53;;;1.50;65.83
76594;BME280;65482;50.240;14.302;2022-12-20T11:06:26;100320.63;;;1.51;65.52
76594;BME280;65482;50.240;14.302;2022-12-20T11:08:52;100328.06;;;1.42;65.85
76594;BME280;65482;50.240;14.302;2022-12-20T11:11:22;100328.88;;;1.26;66.23
76594;BME280;65482;50.240;14.302;2022-12-20T11:13:50;100336.19;;;1.35;66.58
76594;BME280;65482;50.240;14.302;2022-12-20T11:16:32;100336.31;;;1.50;66.46
76594;BME280;65482;50.240;14.302;2022-12-20T11:21:48;100328.31;;;1.53;65.89
76594;BME280;65482;50.240;14.302;2022-12-20T11:25:10;100319.53;;;1.71;65.90
76594;BME280;65482;50.240;14.302;2022-12-20T11:30:39;100305.19;;;1.80;65.46
76594;BME280;65482;50.240;14.302;2022-12-20T11:36:03;100290.81;;;1.89;65.70
76594;BME280;65482;50.240;14.302;2022-12-20T11:38:40;100268.59;;;1.83;65.80
76594;BME280;65482;50.240;14.302;2022-12-20T11:49:52;100251.78;;;1.89;65.30
76594;BME280;65482;50.240;14.302;2022-12-20T11:52:37;100232.88;;;2.01;65.48
76594;BME280;65482;50.240;14.302;2022-12-20T11:58:01;100225.53;;;1.93;64.83
76594;BME280;65482;50.240;14.302;2022-12-20T12:00:31;100214.84;;;1.98;65.62
76594;BME280;65482;50.240;14.302;2022-12-20T12:03:10;100210.50;;;1.83;65.13
76594;BME280;65482;50.240;14.302;2022-12-20T12:05:45;100202.63;;;1.84;65.27
76594;BME280;65482;50.240;14.302;2022-12-20T12:08:24;100208.94;;;1.80;65.49
76594;BME280;65482;50.240;14.302;2022-12-20T12:10:59;100205.81;;;1.89;65.63
76594;BME280;65482;50.240;14.302;2022-12-20T12:13:31;100222.31;;;1.88;64.47
76594;BME280;65482;50.240;14.302;2022-12-20T12:18:33;100223.81;;;1.92;63.79
76594;BME280;65482;50.240;14.302;2022-12-20T12:21:04;100233.72;;;2.02;64.12
76594;BME280;65482;50.240;14.302;2022-12-20T12:26:34;100229.22;;;1.89;63.82
76594;BME280;65482;50.240;14.302;2022-12-20T12:29:03;100205.09;;;2.02;63.92
76594;BME280;65482;50.240;14.302;2022-12-20T12:31:54;100203.03;;;2.07;64.08
76594;BME280;65482;50.240;14.302;2022-12-20T12:43:05;100190.91;;;2.07;63.07
76594;BME280;65482;50.240;14.302;2022-12-20T12:45:47;100195.97;;;2.09;63.31
76594;BME280;65482;50.240;14.302;2022-12-20T12:48:24;100195.53;;;2.16;63.12
76594;BME280;65482;50.240;14.302;2022-12-20T12:50:54;100191.38;;;2.14;63.15
76594;BME280;65482;50.240;14.302;2022-12-20T12:53:27;100199.34;;;2.11;62.90
76594;BME280;65482;50.240;14.302;2022-12-20T12:55:56;100217.97;;;2.19;62.62
76594;BME280;65482;50.240;14.302;2022-12-20T13:00:50;100214.72;;;2.15;62.86
76594;BME280;65482;50.240;14.302;2022-12-20T13:03:37;100199.56;;;2.22;62.46
76594;BME280;65482;50.240;14.302;2022-12-20T13:11:35;100185.50;;;2.25;62.51
76594;BME280;65482;50.240;14.302;2022-12-20T13:16:52;100186.53;;;2.22;62.57
76594;BME280;65482;50.240;14.302;2022-12-20T13:24:51;100169.44;;;2.18;63.29
76594;BME280;65482;50.240;14.302;2022-12-20T13:27:30;100157.22;;;2.04;63.34
76594;BME280;65482;50.240;14.302;2022-12-20T13:30:23;100133.41;;;1.82;64.18
76594;BME280;65482;50.240;14.302;2022-12-20T13:38:08;100148.16;;;1.51;65.83
76594;BME280;65482;50.240;14.302;2022-12-20T13:40:59;100149.34;;;1.45;66.07
76594;BME280;65482;50.240;14.302;2022-12-20T13:43:31;100145.56;;;1.51;65.79
76594;BME280;65482;50.240;14.302;2022-12-20T13:49:21;100153.41;;;1.19;66.54
76594;BME280;65482;50.240;14.302;2022-12-20T13:51:39;100154.91;;;1.23;67.17
76594;BME280;65482;50.240;14.302;2022-12-20T13:54:06;100155.25;;;1.17;67.00
76594;BME280;65482;50.240;14.302;2022-12-20T13:56:47;100176.44;;;1.09;66.98
76594;BME280;65482;50.240;14.302;2022-12-20T13:59:23;100172.75;;;1.13;67.04
76594;BME280;65482;50.240;14.302;2022-12-20T14:01:53;100188.28;;;1.15;66.88
76594;BME280;65482;50.240;14.302;2022-12-20T14:04:20;100184.09;;;1.12;67.13
76594;BME280;65482;50.240;14.302;2022-12-20T14:06:57;100193.47;;;1.15;66.32
76594;BME280;65482;50.240;14.302;2022-12-20T14:09:30;100194.41;;;1.14;66.43
76594;BME280;65482;50.240;14.302;2022-12-20T14:12:11;100193.97;;;1.06;66.88
76594;BME280;65482;50.240;14.302;2022-12-20T14:14:38;100192.69;;;0.97;66.96
76594;BME280;65482;50.240;14.302;2022-12-20T14:17:29;100168.75;;;0.92;67.44
76594;BME280;65482;50.240;14.302;2022-12-20T14:22:41;100160.09;;;0.75;67.57
76594;BME280;65482;50.240;14.302;2022-12-20T14:25:08;100152.47;;;0.72;68.01
76594;BME280;65482;50.240;14.302;2022-12-20T14:27:35;100140.06;;;0.77;68.12
76594;BME280;65482;50.240;14.302;2022-12-20T14:30:04;100135.78;;;0.61;68.02
76594;BME280;65482;50.240;14.302;2022-12-20T14:32:30;100148.00;;;0.58;68.44
76594;BME280;65482;50.240;14.302;2022-12-20T14:34:56;100135.53;;;0.65;67.75
76594;BME280;65482;50.240;14.302;2022-12-20T14:37:29;100139.63;;;0.53;68.17
76594;BME280;65482;50.240;14.302;2022-12-20T14:40:16;100145.75;;;0.52;68.39
76594;BME280;65482;50.240;14.302;2022-12-20T14:42:42;100141.41;;;0.35;68.25
76594;BME280;65482;50.240;14.302;2022-12-20T14:47:33;100141.19;;;0.40;68.22
76594;BME280;65482;50.240;14.302;2022-12-20T14:50:01;100130.13;;;0.36;68.08
76594;BME280;65482;50.240;14.302;2022-12-20T14:55:35;100121.31;;;0.23;69.22
76594;BME280;65482;50.240;14.302;2022-12-20T14:58:23;100117.22;;;0.02;69.64
76594;BME280;65482;50.240;14.302;2022-12-20T15:00:58;100105.88;;;0.04;69.32
76594;BME280;65482;50.240;14.302;2022-12-20T15:03:24;100102.28;;;0.07;69.78
76594;BME280;65482;50.240;14.302;2022-12-20T15:05:52;100096.69;;;0.14;69.27
76594;BME280;65482;50.240;14.302;2022-12-20T15:08:24;100086.53;;;0.10;69.43
76594;BME280;65482;50.240;14.302;2022-12-20T15:13:39;100109.13;;;0.08;69.71
76594;BME280;65482;50.240;14.302;2022-12-20T15:16:14;100108.16;;;0.10;69.70
76594;BME280;65482;50.240;14.302;2022-12-20T15:18:40;100117.75;;;0.08;69.80
76594;BME280;65482;50.240;14.302;2022-12-20T15:21:11;100132.31;;;0.11;70.04
76594;BME280;65482;50.240;14.302;2022-12-20T15:23:45;100125.81;;;0.19;69.67
76594;BME280;65482;50.240;14.302;2022-12-20T15:26:14;100123.59;;;0.12;69.89
76594;BME280;65482;50.240;14.302;2022-12-20T15:28:41;100127.81;;;0.14;69.63